createdAt,value
2017-05-16T00:00:50.146Z,20.96
2017-05-16T00:01:51.780Z,20.92
2017-05-16T00:02:53.382Z,20.84
2017-05-16T00:03:55.092Z,20.88
2017-05-16T00:04:56.709Z,20.87
2017-05-16T00:05:58.350Z,20.90
2017-05-16T00:06:59.943Z,20.90
2017-05-16T00:08:01.617Z,20.84
2017-05-16T00:09:03.310Z,20.84
2017-05-16T00:10:04.932Z,20.90
2017-05-16T00:11:06.562Z,20.88
2017-05-16T00:12:08.157Z,20.95
2017-05-16T00:13:09.800Z,20.93
2017-05-16T00:14:11.497Z,20.97
2017-05-16T00:15:13.101Z,20.90
2017-05-16T00:16:14.727Z,20.85
2017-05-16T00:17:16.378Z,20.84
2017-05-16T00:18:17.988Z,20.85
2017-05-16T00:19:19.638Z,20.90
2017-05-16T00:20:21.280Z,20.87
2017-05-16T00:21:22.929Z,20.92
2017-05-16T00:22:24.555Z,20.87
2017-05-16T00:23:26.245Z,20.85
2017-05-16T00:24:27.997Z,20.75
2017-05-16T00:25:29.648Z,20.78
2017-05-16T00:26:31.302Z,20.77
2017-05-16T00:27:32.949Z,20.84
2017-05-16T00:28:34.653Z,20.90
2017-05-16T00:29:36.397Z,20.81
2017-05-16T00:30:38.106Z,20.90
2017-05-16T00:31:39.825Z,20.88
2017-05-16T00:32:41.473Z,20.78
2017-05-16T00:33:43.120Z,20.74
2017-05-16T00:34:44.892Z,20.75
2017-05-16T00:35:46.574Z,20.74
2017-05-16T00:37:27.685Z,20.74
2017-05-16T00:39:08.849Z,20.72
2017-05-16T00:40:10.503Z,20.74
2017-05-16T00:41:12.141Z,20.80
2017-05-16T00:42:13.743Z,20.85
2017-05-16T00:43:15.393Z,20.74
2017-05-16T00:44:17.089Z,20.78
2017-05-16T00:45:18.774Z,20.82
2017-05-16T00:46:20.413Z,20.87
2017-05-16T00:47:22.066Z,20.87
2017-05-16T00:48:23.685Z,20.80
2017-05-16T00:49:25.410Z,20.90
2017-05-16T00:50:27.046Z,20.88
2017-05-16T00:51:28.701Z,20.88
2017-05-16T00:52:30.311Z,20.77
2017-05-16T00:53:31.940Z,20.85
2017-05-16T00:54:33.637Z,20.82
2017-05-16T00:55:35.296Z,20.72
2017-05-16T00:56:36.895Z,20.85
2017-05-16T00:57:38.593Z,20.92
2017-05-16T00:58:40.280Z,20.84
2017-05-16T00:59:41.998Z,20.85
2017-05-16T01:00:43.698Z,20.81
2017-05-16T01:01:45.343Z,20.82
2017-05-16T01:02:46.999Z,20.84
2017-05-16T01:03:48.666Z,20.78
2017-05-16T01:04:50.389Z,20.84
2017-05-16T01:05:52.138Z,20.85
2017-05-16T01:08:52.985Z,20.88
2017-05-16T01:09:54.642Z,20.90
2017-05-16T01:10:56.274Z,20.85
2017-05-16T01:11:57.917Z,20.88
2017-05-16T01:12:59.508Z,20.84
2017-05-16T01:14:01.250Z,20.82
2017-05-16T01:15:02.879Z,20.88
2017-05-16T01:16:04.532Z,20.74
2017-05-16T01:17:06.197Z,20.75
2017-05-16T01:18:07.820Z,20.82
2017-05-16T01:19:09.481Z,20.74
2017-05-16T01:20:11.136Z,20.80
2017-05-16T01:21:12.772Z,20.78
2017-05-16T01:22:14.429Z,20.77
2017-05-16T01:23:16.214Z,20.67
2017-05-16T01:24:17.840Z,20.82
2017-05-16T01:25:19.495Z,20.67
2017-05-16T01:26:21.105Z,20.69
2017-05-16T01:27:22.698Z,20.69
2017-05-16T01:28:24.322Z,20.74
2017-05-16T01:29:25.956Z,20.72
2017-05-16T01:30:27.598Z,20.65
2017-05-16T01:32:09.162Z,20.66
2017-05-16T01:33:10.756Z,20.74
2017-05-16T01:34:12.359Z,20.69
2017-05-16T01:35:13.958Z,20.72
2017-05-16T01:36:15.601Z,20.66
2017-05-16T01:37:17.300Z,20.74
2017-05-16T01:38:18.984Z,20.80
2017-05-16T01:39:20.612Z,20.69
2017-05-16T01:40:22.283Z,20.72
2017-05-16T01:41:23.925Z,20.67
2017-05-16T01:42:25.607Z,20.72
2017-05-16T01:43:27.243Z,20.66
2017-05-16T01:44:28.951Z,20.67
2017-05-16T01:45:30.609Z,20.69
2017-05-16T01:46:32.274Z,20.67
2017-05-16T01:47:33.977Z,20.74
2017-05-16T01:48:35.694Z,20.75
2017-05-16T01:49:37.360Z,20.72
2017-05-16T01:50:39.021Z,20.75
2017-05-16T01:51:40.688Z,20.78
2017-05-16T01:52:42.402Z,20.80
2017-05-16T01:53:44.071Z,20.74
2017-05-16T01:54:45.678Z,20.70
2017-05-16T01:55:47.320Z,20.67
2017-05-16T01:56:48.969Z,20.72
2017-05-16T01:57:50.658Z,20.60
2017-05-16T01:58:52.359Z,20.67
2017-05-16T01:59:53.971Z,20.70
2017-05-16T02:00:55.634Z,20.60
2017-05-16T02:01:57.254Z,20.59
2017-05-16T02:02:58.985Z,20.55
2017-05-16T02:04:00.608Z,20.63
2017-05-16T02:05:02.212Z,20.60
2017-05-16T02:06:03.820Z,20.52
2017-05-16T02:07:05.530Z,20.56
2017-05-16T02:08:07.225Z,20.56
2017-05-16T02:09:08.910Z,20.59
2017-05-16T02:10:10.763Z,20.56
2017-05-16T02:11:12.491Z,20.51
2017-05-16T02:12:14.126Z,20.59
2017-05-16T02:13:15.821Z,20.62
2017-05-16T02:14:17.568Z,20.62
2017-05-16T02:15:19.209Z,20.59
2017-05-16T02:16:20.860Z,20.58
2017-05-16T02:17:22.524Z,20.44
2017-05-16T02:18:24.298Z,20.50
2017-05-16T02:19:26.017Z,20.48
2017-05-16T02:21:07.218Z,20.47
2017-05-16T02:22:09.018Z,20.50
2017-05-16T02:23:50.157Z,20.51
2017-05-16T02:24:51.837Z,20.44
2017-05-16T02:25:53.500Z,20.39
2017-05-16T02:26:55.151Z,20.36
2017-05-16T02:27:56.818Z,20.36
2017-05-16T02:28:58.568Z,20.36
2017-05-16T02:30:00.256Z,20.43
2017-05-16T02:31:01.908Z,20.40
2017-05-16T02:32:03.557Z,20.50
2017-05-16T02:33:05.220Z,20.59
2017-05-16T02:34:46.439Z,20.51
2017-05-16T02:35:48.091Z,20.47
2017-05-16T02:36:49.882Z,20.58
2017-05-16T02:37:51.578Z,20.58
2017-05-16T02:38:53.249Z,20.52
2017-05-16T02:39:55.000Z,20.58
2017-05-16T02:40:56.665Z,20.43
2017-05-16T02:41:58.320Z,20.47
2017-05-16T02:43:00.003Z,20.43
2017-05-16T02:44:01.679Z,20.48
2017-05-16T02:45:03.501Z,20.40
2017-05-16T02:46:05.144Z,20.37
2017-05-16T02:47:06.821Z,20.40
2017-05-16T02:48:08.440Z,20.41
2017-05-16T02:49:10.141Z,20.41
2017-05-16T02:50:11.839Z,20.37
2017-05-16T02:51:13.482Z,20.40
2017-05-16T02:52:15.103Z,20.36
2017-05-16T02:53:16.762Z,20.32
2017-05-16T02:54:18.469Z,20.36
2017-05-16T02:55:20.249Z,20.31
2017-05-16T02:56:21.941Z,20.32
2017-05-16T02:57:23.628Z,20.31
2017-05-16T02:58:25.302Z,20.31
2017-05-16T02:59:27.041Z,20.34
2017-05-16T03:00:28.748Z,20.40
2017-05-16T03:01:30.424Z,20.28
2017-05-16T03:02:32.073Z,20.31
2017-05-16T03:03:33.717Z,20.31
2017-05-16T03:04:35.447Z,20.36
2017-05-16T03:05:37.215Z,20.34
2017-05-16T03:06:38.874Z,20.37
2017-05-16T03:07:40.475Z,20.31
2017-05-16T03:08:42.082Z,20.44
2017-05-16T03:09:43.737Z,20.31
2017-05-16T03:10:45.424Z,20.31
2017-05-16T03:11:47.074Z,20.32
2017-05-16T03:12:48.715Z,20.31
2017-05-16T03:13:50.333Z,20.36
2017-05-16T03:14:52.032Z,20.31
2017-05-16T03:16:33.186Z,20.40
2017-05-16T03:18:15.291Z,20.41
2017-05-16T03:19:16.970Z,20.36
2017-05-16T03:20:18.574Z,20.28
2017-05-16T03:21:20.148Z,20.40
2017-05-16T03:22:21.919Z,20.32
2017-05-16T03:23:23.537Z,20.31
2017-05-16T03:24:25.185Z,20.29
2017-05-16T03:25:26.836Z,20.40
2017-05-16T03:26:28.534Z,20.36
2017-05-16T03:27:30.175Z,20.36
2017-05-16T03:28:31.931Z,20.29
2017-05-16T03:29:33.553Z,20.29
2017-05-16T03:30:35.137Z,20.34
2017-05-16T03:31:36.811Z,20.28
2017-05-16T03:33:18.045Z,20.34
2017-05-16T03:34:19.689Z,20.48
2017-05-16T03:35:21.323Z,20.41
2017-05-16T03:36:22.940Z,20.37
2017-05-16T03:37:24.587Z,20.34
2017-05-16T03:38:26.335Z,20.40
2017-05-16T03:39:28.038Z,20.48
2017-05-16T03:40:29.692Z,20.55
2017-05-16T03:41:31.367Z,20.55
2017-05-16T03:42:33.050Z,20.63
2017-05-16T03:43:34.776Z,20.62
2017-05-16T03:44:36.440Z,20.56
2017-05-16T03:45:38.030Z,20.62
2017-05-16T03:46:39.733Z,20.66
2017-05-16T03:47:41.443Z,20.62
2017-05-16T03:48:43.188Z,20.67
2017-05-16T03:49:44.866Z,20.69
2017-05-16T03:50:46.579Z,20.67
2017-05-16T03:51:48.261Z,20.70
2017-05-16T03:52:49.949Z,20.69
2017-05-16T03:53:51.715Z,20.67
2017-05-16T03:54:53.423Z,20.72
2017-05-16T03:55:55.155Z,20.69
2017-05-16T03:56:56.898Z,20.69
2017-05-16T03:57:58.586Z,20.66
2017-05-16T03:59:00.318Z,20.67
2017-05-16T04:00:02.627Z,20.75
2017-05-16T04:01:04.393Z,20.78
2017-05-16T04:02:06.354Z,20.74
2017-05-16T04:03:08.047Z,20.72
2017-05-16T04:04:09.761Z,20.72
2017-05-16T04:05:11.461Z,20.84
2017-05-16T04:06:13.133Z,20.80
2017-05-16T04:07:14.799Z,20.70
2017-05-16T04:08:56.064Z,20.77
2017-05-16T04:09:57.731Z,20.74
2017-05-16T04:10:59.389Z,20.80
2017-05-16T04:12:01.063Z,20.74
2017-05-16T04:13:02.768Z,20.78
2017-05-16T04:14:04.537Z,20.78
2017-05-16T04:15:06.215Z,20.85
2017-05-16T04:16:07.834Z,20.80
2017-05-16T04:17:09.479Z,20.70
2017-05-16T04:18:11.107Z,20.80
2017-05-16T04:19:12.812Z,20.75
2017-05-16T04:20:14.453Z,20.74
2017-05-16T04:21:16.058Z,20.81
2017-05-16T04:22:17.696Z,20.77
2017-05-16T04:23:19.339Z,20.81
2017-05-16T04:24:21.089Z,20.84
2017-05-16T04:25:22.709Z,20.81
2017-05-16T04:26:24.415Z,20.78
2017-05-16T04:27:26.199Z,20.82
2017-05-16T04:28:27.877Z,20.80
2017-05-16T04:29:29.605Z,20.82
2017-05-16T04:30:31.245Z,20.88
2017-05-16T04:31:32.938Z,20.85
2017-05-16T04:32:34.614Z,20.84
2017-05-16T04:33:36.204Z,20.87
2017-05-16T04:34:37.894Z,20.88
2017-05-16T04:35:39.544Z,20.90
2017-05-16T04:36:41.143Z,20.88
2017-05-16T04:37:42.785Z,20.88
2017-05-16T04:38:44.425Z,20.87
2017-05-16T04:39:46.157Z,20.84
2017-05-16T04:40:47.936Z,20.85
2017-05-16T04:41:49.576Z,20.92
2017-05-16T04:42:51.262Z,20.87
2017-05-16T04:43:52.876Z,20.88
2017-05-16T04:45:34.053Z,20.85
2017-05-16T04:47:16.721Z,20.85
2017-05-16T04:48:18.405Z,20.88
2017-05-16T04:49:20.067Z,20.88
2017-05-16T04:50:21.680Z,20.90
2017-05-16T04:51:23.333Z,20.84
2017-05-16T04:52:25.435Z,20.90
2017-05-16T04:53:27.127Z,20.88
2017-05-16T04:54:28.761Z,20.87
2017-05-16T04:55:30.372Z,20.87
2017-05-16T04:56:31.989Z,20.85
2017-05-16T04:57:33.686Z,20.90
2017-05-16T04:58:38.331Z,20.90
2017-05-16T04:59:40.059Z,20.95
2017-05-16T05:00:43.622Z,20.85
2017-05-16T05:02:24.730Z,20.92
2017-05-16T05:03:26.358Z,20.97
2017-05-16T05:04:30.461Z,20.90
2017-05-16T05:05:32.130Z,20.93
2017-05-16T05:06:33.760Z,21.02
2017-05-16T05:07:35.555Z,20.96
2017-05-16T05:08:37.236Z,20.88
2017-05-16T05:09:38.931Z,20.95
2017-05-16T05:10:40.653Z,20.95
2017-05-16T05:11:42.342Z,20.95
2017-05-16T05:12:44.042Z,20.90
2017-05-16T05:13:45.781Z,20.97
2017-05-16T05:14:47.653Z,20.96
2017-05-16T05:15:49.329Z,20.96
2017-05-16T05:16:50.988Z,20.97
2017-05-16T05:17:52.701Z,20.88
2017-05-16T05:18:54.437Z,20.95
2017-05-16T05:19:56.878Z,20.97
2017-05-16T05:20:58.622Z,20.95
2017-05-16T05:22:00.342Z,20.97
2017-05-16T05:23:02.005Z,21.03
2017-05-16T05:24:03.711Z,20.96
2017-05-16T05:25:05.424Z,20.97
2017-05-16T05:26:07.168Z,20.99
2017-05-16T05:27:08.897Z,21.05
2017-05-16T05:28:10.608Z,21.00
2017-05-16T05:29:12.264Z,21.06
2017-05-16T05:30:13.891Z,21.05
2017-05-16T05:31:15.603Z,21.06
2017-05-16T05:32:17.337Z,21.06
2017-05-16T05:33:19.033Z,21.00
2017-05-16T05:34:20.725Z,20.99
2017-05-16T05:35:22.563Z,21.02
2017-05-16T05:36:24.262Z,21.00
2017-05-16T05:37:26.019Z,21.05
2017-05-16T05:38:27.718Z,21.05
2017-05-16T05:39:29.416Z,21.12
2017-05-16T05:40:31.130Z,21.11
2017-05-16T05:41:32.820Z,21.15
2017-05-16T05:42:34.575Z,21.07
2017-05-16T05:43:36.269Z,21.06
2017-05-16T05:44:37.955Z,21.11
2017-05-16T05:45:39.644Z,21.15
2017-05-16T05:46:41.381Z,21.07
2017-05-16T05:47:43.090Z,21.12
2017-05-16T05:48:44.773Z,21.09
2017-05-16T05:49:46.434Z,21.11
2017-05-16T05:50:48.182Z,21.09
2017-05-16T05:51:49.886Z,21.17
2017-05-16T05:52:51.654Z,21.17
2017-05-16T05:53:53.375Z,21.17
2017-05-16T05:55:34.810Z,21.06
2017-05-16T05:56:36.484Z,21.11
2017-05-16T05:57:38.181Z,21.11
2017-05-16T05:59:19.303Z,21.18
2017-05-16T06:00:21.070Z,21.12
2017-05-16T06:01:22.775Z,21.18
2017-05-16T06:02:24.389Z,21.15
2017-05-16T06:03:26.086Z,21.20
2017-05-16T06:04:27.852Z,21.18
2017-05-16T06:05:29.497Z,21.18
2017-05-16T06:06:31.124Z,21.14
2017-05-16T06:07:32.768Z,21.20
2017-05-16T06:08:34.435Z,21.14
2017-05-16T06:09:36.169Z,21.17
2017-05-16T06:10:37.914Z,21.18
2017-05-16T06:11:39.567Z,21.15
2017-05-16T06:12:41.918Z,21.15
2017-05-16T06:13:43.560Z,21.25
2017-05-16T06:14:45.261Z,21.11
2017-05-16T06:15:46.927Z,21.15
2017-05-16T06:16:48.650Z,21.29
2017-05-16T06:17:50.385Z,21.25
2017-05-16T06:18:52.080Z,21.24
2017-05-16T06:19:53.769Z,21.22
2017-05-16T06:20:55.420Z,21.25
2017-05-16T06:21:57.115Z,21.24
2017-05-16T06:22:58.846Z,21.22
2017-05-16T06:24:00.535Z,21.27
2017-05-16T06:25:02.245Z,21.20
2017-05-16T06:26:03.901Z,21.27
2017-05-16T06:27:05.577Z,21.20
2017-05-16T06:28:07.240Z,21.21
2017-05-16T06:29:08.910Z,21.22
2017-05-16T06:30:10.635Z,21.25
2017-05-16T06:31:12.301Z,21.22
2017-05-16T06:32:14.017Z,21.29
2017-05-16T06:33:15.787Z,21.22
2017-05-16T06:34:17.406Z,21.30
2017-05-16T06:35:19.182Z,21.30
2017-05-16T06:36:20.875Z,21.22
2017-05-16T06:37:22.574Z,21.25
2017-05-16T06:38:24.211Z,21.24
2017-05-16T06:39:25.799Z,21.18
2017-05-16T06:40:27.647Z,21.21
2017-05-16T06:41:29.296Z,21.30
2017-05-16T06:42:30.977Z,21.22
2017-05-16T06:43:32.656Z,21.30
2017-05-16T06:44:34.370Z,21.30
2017-05-16T06:45:36.184Z,21.29
2017-05-16T06:47:17.364Z,21.29
2017-05-16T06:48:58.565Z,21.27
2017-05-16T06:50:00.213Z,21.22
2017-05-16T06:51:01.868Z,21.35
2017-05-16T06:52:03.600Z,21.32
2017-05-16T06:53:05.322Z,21.30
2017-05-16T06:54:07.072Z,21.27
2017-05-16T06:55:08.804Z,21.25
2017-05-16T06:56:10.475Z,21.27
2017-05-16T06:57:12.118Z,21.32
2017-05-16T06:58:13.789Z,21.25
2017-05-16T06:59:15.588Z,21.30
2017-05-16T07:00:17.292Z,21.33
2017-05-16T07:01:19.001Z,21.33
2017-05-16T07:02:20.669Z,21.32
2017-05-16T07:03:22.354Z,21.37
2017-05-16T07:04:24.091Z,21.30
2017-05-16T07:05:25.779Z,21.30
2017-05-16T07:06:27.504Z,21.40
2017-05-16T07:07:29.253Z,21.30
2017-05-16T07:08:30.967Z,21.37
2017-05-16T07:09:32.698Z,21.35
2017-05-16T07:10:34.370Z,21.37
2017-05-16T07:11:36.073Z,21.40
2017-05-16T07:13:17.297Z,21.40
2017-05-16T07:14:19.234Z,21.39
2017-05-16T07:15:20.912Z,21.40
2017-05-16T07:16:22.633Z,21.43
2017-05-16T07:17:24.378Z,21.42
2017-05-16T07:18:26.171Z,21.40
2017-05-16T07:19:27.879Z,21.39
2017-05-16T07:20:29.529Z,21.45
2017-05-16T07:21:31.171Z,21.43
2017-05-16T07:22:32.853Z,21.51
2017-05-16T07:23:34.551Z,21.40
2017-05-16T07:24:36.220Z,21.45
2017-05-16T07:25:37.917Z,21.54
2017-05-16T07:26:39.594Z,21.55
2017-05-16T07:27:41.310Z,21.48
2017-05-16T07:28:43.147Z,21.48
2017-05-16T07:29:44.860Z,21.54
2017-05-16T07:30:46.544Z,21.48
2017-05-16T07:31:48.238Z,21.52
2017-05-16T07:32:50.068Z,21.51
2017-05-16T07:33:51.827Z,21.48
2017-05-16T07:34:53.490Z,21.51
2017-05-16T07:35:55.167Z,21.58
2017-05-16T07:36:56.860Z,21.51
2017-05-16T07:37:58.531Z,21.52
2017-05-16T07:39:39.755Z,21.57
2017-05-16T07:40:41.486Z,21.66
2017-05-16T07:41:43.257Z,21.62
2017-05-16T07:42:44.941Z,21.58
2017-05-16T07:43:46.568Z,21.67
2017-05-16T07:44:48.258Z,21.62
2017-05-16T07:45:49.965Z,21.70
2017-05-16T07:46:51.580Z,21.73
2017-05-16T07:47:53.262Z,21.69
2017-05-16T07:48:54.935Z,21.62
2017-05-16T07:49:56.599Z,21.67
2017-05-16T07:50:58.251Z,21.72
2017-05-16T07:51:59.863Z,21.73
2017-05-16T07:53:01.530Z,21.67
2017-05-16T07:54:03.190Z,21.73
2017-05-16T07:55:04.923Z,21.76
2017-05-16T07:56:06.576Z,21.82
2017-05-16T07:57:08.365Z,21.83
2017-05-16T07:58:09.988Z,21.82
2017-05-16T07:59:11.637Z,21.85
2017-05-16T08:00:13.374Z,21.80
2017-05-16T08:01:15.015Z,21.89
2017-05-16T08:02:16.696Z,21.89
2017-05-16T08:03:18.339Z,21.85
2017-05-16T08:04:20.007Z,21.89
2017-05-16T08:05:21.757Z,21.82
2017-05-16T08:06:23.493Z,21.82
2017-05-16T08:07:25.248Z,21.87
2017-05-16T08:08:26.903Z,21.93
2017-05-16T08:09:28.562Z,21.80
2017-05-16T08:10:30.257Z,21.91
2017-05-16T08:11:32.110Z,21.85
2017-05-16T08:12:33.827Z,21.96
2017-05-16T08:13:35.424Z,21.93
2017-05-16T08:14:37.078Z,22.00
2017-05-16T08:15:38.757Z,21.98
2017-05-16T08:16:40.362Z,22.02
2017-05-16T08:17:42.059Z,21.96
2017-05-16T08:18:43.696Z,21.89
2017-05-16T08:19:45.410Z,22.04
2017-05-16T08:20:47.092Z,22.00
2017-05-16T08:21:48.829Z,22.06
2017-05-16T08:22:50.515Z,22.04
2017-05-16T08:23:52.133Z,22.00
2017-05-16T08:24:53.789Z,22.10
2017-05-16T08:25:55.504Z,22.04
2017-05-16T08:26:57.215Z,22.08
2017-05-16T08:27:58.907Z,22.15
2017-05-16T08:29:00.554Z,22.15
2017-05-16T08:30:02.267Z,22.22
2017-05-16T08:31:03.982Z,22.15
2017-05-16T08:32:05.590Z,22.14
2017-05-16T08:33:07.262Z,22.18
2017-05-16T08:34:08.908Z,22.22
2017-05-16T08:35:10.695Z,22.26
2017-05-16T08:36:12.355Z,22.33
2017-05-16T08:37:14.020Z,22.29
2017-05-16T08:38:15.773Z,22.30
2017-05-16T08:39:17.438Z,22.33
2017-05-16T08:40:19.117Z,22.36
2017-05-16T08:41:20.830Z,22.32
2017-05-16T08:42:22.507Z,22.35
2017-05-16T08:43:24.335Z,22.43
2017-05-16T08:44:26.020Z,22.41
2017-05-16T08:45:27.718Z,22.41
2017-05-16T08:46:29.517Z,22.43
2017-05-16T08:47:31.177Z,22.55
2017-05-16T08:48:32.817Z,22.47
2017-05-16T08:49:34.493Z,22.53
2017-05-16T08:50:36.136Z,22.59
2017-05-16T08:51:37.881Z,22.57
2017-05-16T08:52:39.551Z,22.59
2017-05-16T08:53:41.189Z,22.59
2017-05-16T08:54:42.904Z,22.69
2017-05-16T08:55:44.577Z,22.70
2017-05-16T08:56:46.340Z,22.75
2017-05-16T08:57:47.986Z,22.75
2017-05-16T08:58:49.693Z,22.69
2017-05-16T08:59:51.405Z,22.81
2017-05-16T09:00:53.013Z,22.83
2017-05-16T09:01:54.715Z,22.76
2017-05-16T09:02:56.457Z,22.85
2017-05-16T09:03:58.127Z,22.87
2017-05-16T09:04:59.899Z,22.84
2017-05-16T09:06:01.565Z,22.85
2017-05-16T09:07:03.308Z,22.90
2017-05-16T09:08:05.035Z,23.00
2017-05-16T09:09:06.700Z,22.91
2017-05-16T09:10:08.371Z,22.91
2017-05-16T09:11:09.991Z,23.05
2017-05-16T09:12:11.829Z,22.93
2017-05-16T09:13:13.473Z,23.03
2017-05-16T09:14:15.134Z,23.09
2017-05-16T09:15:16.784Z,23.08
2017-05-16T09:16:18.425Z,23.17
2017-05-16T09:17:20.238Z,23.06
2017-05-16T09:18:21.887Z,23.21
2017-05-16T09:19:23.560Z,23.18
2017-05-16T09:20:25.256Z,23.15
2017-05-16T09:21:26.903Z,23.25
2017-05-16T09:22:28.619Z,23.21
2017-05-16T09:23:30.261Z,23.23
2017-05-16T09:25:11.361Z,23.21
2017-05-16T09:26:13.115Z,23.24
2017-05-16T09:27:14.749Z,23.34
2017-05-16T09:28:16.372Z,23.34
2017-05-16T09:29:18.038Z,23.36
2017-05-16T09:30:19.834Z,23.28
2017-05-16T09:31:21.435Z,23.39
2017-05-16T09:32:23.101Z,23.47
2017-05-16T09:33:24.718Z,23.51
2017-05-16T09:34:26.455Z,23.54
2017-05-16T09:35:28.147Z,23.54
2017-05-16T09:37:09.334Z,23.62
2017-05-16T09:38:51.486Z,23.65
2017-05-16T09:39:53.088Z,23.63
2017-05-16T09:40:54.712Z,23.77
2017-05-16T09:41:56.262Z,23.68
2017-05-16T09:42:57.891Z,23.63
2017-05-16T09:43:59.482Z,23.66
2017-05-16T09:45:01.114Z,23.62
2017-05-16T09:46:02.706Z,23.65
2017-05-16T09:47:04.359Z,23.65
2017-05-16T09:48:05.967Z,23.71
2017-05-16T09:49:07.681Z,23.69
2017-05-16T09:50:09.247Z,23.78
2017-05-16T09:51:10.860Z,23.74
2017-05-16T09:52:12.528Z,23.73
2017-05-16T09:53:14.166Z,23.66
2017-05-16T09:54:15.868Z,23.74
2017-05-16T09:55:17.544Z,23.73
2017-05-16T09:56:19.170Z,23.74
2017-05-16T09:57:20.798Z,23.74
2017-05-16T09:58:22.408Z,23.78
2017-05-16T09:59:24.900Z,23.77
2017-05-16T10:00:26.511Z,23.74
2017-05-16T10:01:28.176Z,23.83
2017-05-16T10:02:29.861Z,23.92
2017-05-16T10:03:31.484Z,23.91
2017-05-16T10:04:33.249Z,23.91
2017-05-16T10:05:34.889Z,23.93
2017-05-16T10:06:36.501Z,23.95
2017-05-16T10:07:38.151Z,23.86
2017-05-16T10:08:39.786Z,23.98
2017-05-16T10:09:41.502Z,23.95
2017-05-16T10:10:43.232Z,23.99
2017-05-16T10:11:44.895Z,23.99
2017-05-16T10:12:46.554Z,24.03
2017-05-16T10:13:48.355Z,23.98
2017-05-16T10:14:50.112Z,23.99
2017-05-16T10:15:51.800Z,24.01
2017-05-16T10:17:33.134Z,24.08
2017-05-16T10:18:34.811Z,24.13
2017-05-16T10:19:36.463Z,24.11
2017-05-16T10:20:38.162Z,24.13
2017-05-16T10:21:39.849Z,24.10
2017-05-16T10:22:41.606Z,24.17
2017-05-16T10:23:43.256Z,24.13
2017-05-16T10:24:44.948Z,24.14
2017-05-16T10:25:46.636Z,24.17
2017-05-16T10:26:48.413Z,24.20
2017-05-16T10:27:50.151Z,24.26
2017-05-16T10:28:51.831Z,24.20
2017-05-16T10:29:53.502Z,24.20
2017-05-16T10:30:55.256Z,24.21
2017-05-16T10:31:56.984Z,24.16
2017-05-16T10:32:58.729Z,24.17
2017-05-16T10:34:00.450Z,24.17
2017-05-16T10:35:02.105Z,24.28
2017-05-16T10:36:43.433Z,24.21
2017-05-16T10:37:45.154Z,24.17
2017-05-16T10:38:46.796Z,24.26
2017-05-16T10:39:48.525Z,24.28
2017-05-16T10:40:50.143Z,24.29
2017-05-16T10:41:51.879Z,24.26
2017-05-16T10:42:53.852Z,24.26
2017-05-16T10:43:55.471Z,24.30
2017-05-16T10:44:57.093Z,24.30
2017-05-16T10:45:58.738Z,24.35
2017-05-16T10:47:00.406Z,24.28
2017-05-16T10:48:02.017Z,24.35
2017-05-16T10:49:03.657Z,24.38
2017-05-16T10:50:05.300Z,24.38
2017-05-16T10:51:06.894Z,24.45
2017-05-16T10:52:08.544Z,24.36
2017-05-16T10:53:10.908Z,24.33
2017-05-16T10:54:12.582Z,24.39
2017-05-16T10:55:14.201Z,24.36
2017-05-16T10:56:15.794Z,24.50
2017-05-16T10:57:17.440Z,24.50
2017-05-16T10:58:19.081Z,24.48
2017-05-16T10:59:20.675Z,24.50
2017-05-16T11:00:22.301Z,24.43
2017-05-16T11:01:23.918Z,24.48
2017-05-16T11:02:25.657Z,24.45
2017-05-16T11:03:27.290Z,24.48
2017-05-16T11:04:28.942Z,24.53
2017-05-16T11:05:30.552Z,24.53
2017-05-16T11:06:32.232Z,24.54
2017-05-16T11:07:33.923Z,24.53
2017-05-16T11:08:35.542Z,24.54
2017-05-16T11:10:16.725Z,24.55
2017-05-16T11:11:18.369Z,24.57
2017-05-16T11:12:19.971Z,24.57
2017-05-16T11:13:21.605Z,24.54
2017-05-16T11:14:23.258Z,24.54
2017-05-16T11:15:24.921Z,24.54
2017-05-16T11:16:26.547Z,24.65
2017-05-16T11:17:28.177Z,24.66
2017-05-16T11:18:29.806Z,24.73
2017-05-16T11:19:31.457Z,24.80
2017-05-16T11:20:33.203Z,24.73
2017-05-16T11:21:34.854Z,24.76
2017-05-16T11:22:36.506Z,24.69
2017-05-16T11:23:38.176Z,24.78
2017-05-16T11:24:39.734Z,24.80
2017-05-16T11:25:41.448Z,24.69
2017-05-16T11:26:43.050Z,24.76
2017-05-16T11:27:44.722Z,24.81
2017-05-16T11:28:46.346Z,24.84
2017-05-16T11:29:47.985Z,24.80
2017-05-16T11:30:49.710Z,24.81
2017-05-16T11:31:51.388Z,24.80
2017-05-16T11:32:53.032Z,24.89
2017-05-16T11:33:54.703Z,24.80
2017-05-16T11:34:56.378Z,24.81
2017-05-16T11:35:58.094Z,24.85
2017-05-16T11:36:59.736Z,24.92
2017-05-16T11:38:01.352Z,24.85
2017-05-16T11:39:02.960Z,24.98
2017-05-16T11:40:04.606Z,24.88
2017-05-16T11:41:06.394Z,24.89
2017-05-16T11:42:08.087Z,24.91
2017-05-16T11:43:09.690Z,24.92
2017-05-16T11:44:11.353Z,24.89
2017-05-16T11:45:13.031Z,24.95
2017-05-16T11:46:14.822Z,24.93
2017-05-16T11:47:16.454Z,24.93
2017-05-16T11:48:18.138Z,24.91
2017-05-16T11:49:19.811Z,24.92
2017-05-16T11:50:21.560Z,24.93
2017-05-16T11:51:23.262Z,24.92
2017-05-16T11:52:24.900Z,24.99
2017-05-16T11:53:26.567Z,24.92
2017-05-16T11:54:28.253Z,24.96
2017-05-16T11:55:29.971Z,24.95
2017-05-16T11:56:31.732Z,24.98
2017-05-16T11:57:33.399Z,24.99
2017-05-16T11:58:35.111Z,24.98
2017-05-16T11:59:36.786Z,24.99
2017-05-16T12:01:17.931Z,24.93
2017-05-16T12:02:19.599Z,24.98
2017-05-16T12:03:21.253Z,24.92
2017-05-16T12:04:22.977Z,24.91
2017-05-16T12:05:24.638Z,25.07
2017-05-16T12:06:26.366Z,25.06
2017-05-16T12:07:28.028Z,24.99
2017-05-16T12:08:29.674Z,24.96
2017-05-16T12:09:31.335Z,24.98
2017-05-16T12:10:32.982Z,25.01
2017-05-16T12:11:34.691Z,25.04
2017-05-16T12:12:36.382Z,25.01
2017-05-16T12:13:38.072Z,25.06
2017-05-16T12:14:39.690Z,24.95
2017-05-16T12:15:41.378Z,25.04
2017-05-16T12:16:43.054Z,24.99
2017-05-16T12:17:44.677Z,25.08
2017-05-16T12:18:46.331Z,25.03
2017-05-16T12:19:47.968Z,25.04
2017-05-16T12:20:49.600Z,25.04
2017-05-16T12:21:51.304Z,25.03
2017-05-16T12:22:52.968Z,25.01
2017-05-16T12:23:54.699Z,25.13
2017-05-16T12:24:56.465Z,25.14
2017-05-16T12:25:58.181Z,25.07
2017-05-16T12:26:59.930Z,25.07
2017-05-16T12:28:01.617Z,25.14
2017-05-16T12:29:03.307Z,25.13
2017-05-16T12:30:05.061Z,25.13
2017-05-16T12:31:06.770Z,25.11
2017-05-16T12:32:08.473Z,25.16
2017-05-16T12:33:10.126Z,25.14
2017-05-16T12:34:11.781Z,25.13
2017-05-16T12:35:13.456Z,25.14
2017-05-16T12:36:15.185Z,25.17
2017-05-16T12:37:16.858Z,25.14
2017-05-16T12:38:18.519Z,25.17
2017-05-16T12:39:20.200Z,25.13
2017-05-16T12:40:21.821Z,25.14
2017-05-16T12:41:23.508Z,25.25
2017-05-16T12:42:25.161Z,25.17
2017-05-16T12:43:26.862Z,25.21
2017-05-16T12:44:28.519Z,25.17
2017-05-16T12:45:30.162Z,25.21
2017-05-16T12:46:31.822Z,25.21
2017-05-16T12:47:33.508Z,25.21
2017-05-16T12:48:35.097Z,25.18
2017-05-16T12:49:36.703Z,25.28
2017-05-16T12:50:38.356Z,25.33
2017-05-16T12:51:40.005Z,25.29
2017-05-16T12:52:41.673Z,25.28
2017-05-16T12:54:22.837Z,25.18
2017-05-16T12:55:24.442Z,25.18
2017-05-16T12:56:26.073Z,25.31
2017-05-16T12:57:27.711Z,25.38
2017-05-16T12:58:29.333Z,25.31
2017-05-16T12:59:30.993Z,25.38
2017-05-16T13:00:33.576Z,25.32
2017-05-16T13:01:35.204Z,25.29
2017-05-16T13:02:36.798Z,25.31
2017-05-16T13:03:38.502Z,25.29
2017-05-16T13:04:40.197Z,25.21
2017-05-16T13:05:41.905Z,25.28
2017-05-16T13:06:43.503Z,25.22
2017-05-16T13:07:45.116Z,25.35
2017-05-16T13:08:46.792Z,25.38
2017-05-16T13:09:48.490Z,25.35
2017-05-16T13:10:50.177Z,25.31
2017-05-16T13:11:51.826Z,25.40
2017-05-16T13:12:53.453Z,25.35
2017-05-16T13:13:55.094Z,25.41
2017-05-16T13:14:56.797Z,25.36
2017-05-16T13:15:58.426Z,25.40
2017-05-16T13:17:00.107Z,25.35
2017-05-16T13:18:01.794Z,25.36
2017-05-16T13:19:03.473Z,25.35
2017-05-16T13:20:05.209Z,25.46
2017-05-16T13:21:06.910Z,25.40
2017-05-16T13:22:08.555Z,25.36
2017-05-16T13:23:10.238Z,25.33
2017-05-16T13:24:11.935Z,25.40
2017-05-16T13:25:13.912Z,25.33
2017-05-16T13:26:15.590Z,25.36
2017-05-16T13:27:17.298Z,25.36
2017-05-16T13:28:18.961Z,25.38
2017-05-16T13:29:20.655Z,25.36
2017-05-16T13:30:22.415Z,25.44
2017-05-16T13:31:24.106Z,25.47
2017-05-16T13:32:25.804Z,25.43
2017-05-16T13:33:27.468Z,25.38
2017-05-16T13:34:29.155Z,25.41